Weather observations for the past three days for
Bar Harbor, Hancock County-Bar Harbor Airport
Metric (Imperial)
Date Time (edt) Wind (kph) Vis. (km) Weather Sky Cond. Temperature (ºC) Relative Humidity Wind Chill (°C) Heat Index (°C) Pressure Precipitation (cm)
Air Dwpt 6 hour altimeter (cm) sea level (mb) 1 hr 3 hr 6 hr
Max. Min.
01 01:56 N 6 16.09 Fair CLR 10 8.9 17.2 10 93% 76.38 1018.4
31 23:56 Calm 16.09 Fair CLR 12.2 9.4 83% 76.4 1018.7
31 20:56 Calm 16.09 Fair CLR 16.1 9.4 65% 76.4 0.0
31 18:56 SW 9 16.09 Fair CLR 18.3 12.2 68% 76.35 0.0
31 17:56 S 20 16.09 Fair CLR 20 12.2 61% 76.33 0.0
31 15:56 NW 9 16.09 Fair CLR 23.9 8.3 37% 25 76.33 0.0
31 14:56 SW 19 16.09 Fair CLR 23.3 8.3 38% 76.35 0.0
31 13:56 SW 15 16.09 Fair CLR 22.2 9.4 44% 76.38 0.0
31 12:56 Vrbl 9 16.09 Fair CLR 21.7 10.6 49% 76.4 0.0
31 11:56 W 15 16.09 A Few Clouds FEW040 20.6 11.1 55% 76.45 0.0
31 10:56 Vrbl 11 16.09 Fair CLR 19.4 11.1 59% 76.48 0.0
31 09:56 NW 7 16.09 NULL NULL 17.8 11.7 68% 76.45 0.0
31 08:56 Vrbl 9 16.09 Fair CLR 16.1 11.7 75% 76.45 0.0
31 06:56 Vrbl 6 16.09 Fair CLR 12.2 11.1 93% 76.4 0.0
31 05:56 N 7 16.09 Fair CLR 11.1 10.6 97% 76.35 0.0
31 04:56 NW 6 16.09 Fair CLR 11.1 11.1 100% 76.33 0.0
31 03:56 Vrbl 6 16.09 Fair CLR 12.2 11.7 97% 76.33 0.0
31 02:56 NW 9 16.09 Fair CLR 13.3 12.2 93% 76.25 0.0
30 23:56 Vrbl 6 16.09 Fair CLR 15.6 15 96% 76.15 0.0
30 20:56 Calm 16.09 Light Rain OVC055 17.2 16.1 93% 76.15 0.0
30 19:56 W 9 12.87 Light Rain BKN038 OVC065 18.9 17.2 23.9 18.9 90% 76.1 1014.7
30 18:56 Vrbl 7 16.09 Overcast OVC090 21.7 15.6 68% 76.02 1013.5
30 17:56 SW 11 16.09 Mostly Cloudy BKN110 22.2 15.6 66% 76 1013.4
30 16:56 S 13 16.09 Fair CLR 20.6 16.1 76% 76.02 1013.6
30 15:56 S 19 16.09 Fair CLR 21.1 16.1 73% 76.05 1013.9
30 14:56 S 20 16.09 A Few Clouds FEW120 21.7 16.1 71% 76.1 1014.6
30 13:56 S 15 16.09 Mostly Cloudy BKN100 22.8 15.6 26.1 18.3 64% 76.12 1014.9
30 11:56 S 22 G 31 16.09 A Few Clouds FEW050 25 14.4 52% 26 76.17 1015.8
30 10:56 S 17 16.09 Fair CLR 23.3 14.4 57% 76.28 1016.9
30 09:56 SW 13 16.09 Fair CLR 22.8 13.9 57% 76.3 1017.4
30 08:56 SW 13 16.09 Fair CLR 21.1 15 68% 76.33 1017.6
30 07:56 S 9 16.09 Fair CLR 18.3 15.6 18.3 13.9 84% 76.35 1018.0
30 05:56 SW 9 16.09 A Few Clouds FEW090 15 15 100% 76.4 1018.6
30 04:56 S 7 16.09 Fair CLR 14.4 14.4 100% 76.4 1018.7
30 03:56 SW 7 16.09 Fair CLR 14.4 14.4 100% 76.43 1018.9
30 02:56 SW 7 16.09 Fair CLR 15 13.9 93% 76.43 1019.2
29 21:56 SW 9 16.09 Fair CLR 15.6 12.2 80% 76.5 1020.1
29 20:56 SW 13 16.09 Fair CLR 16.1 12.2 78% 76.5 1020.2
29 19:56 SW 11 16.09 Fair CLR 17.2 12.2 23.9 16.7 73% 76.48 1019.7
29 18:56 SW 15 16.09 Fair CLR 17.8 12.2 70% 76.48 1019.7
29 16:56 S 28 16.09 Fair CLR 21.1 12.8 59% 76.45 1019.3
29 14:56 Vrbl 11 G 26 16.09 Fair CLR 23.3 8.3 38% 76.48 1019.7
29 13:56 W 15 G 26 16.09 Fair CLR 23.3 8.3 23.3 16.7 38% 76.5 1020.2
29 12:56 W 20 G 33 16.09 Fair CLR 22.8 8.9 41% 76.5 1020.1
29 11:56 W 15 16.09 Partly Cloudy SCT049 22.2 10 46% 76.56 1020.7
29 09:56 NW 15 16.09 Fair CLR 20 8.9 49% 76.61 1021.4
29 08:56 NW 11 16.09 Fair CLR 18.9 10 56% 76.58 1021.2
29 07:56 NW 7 16.09 Fair CLR 16.7 11.1 17.8 12.8 70% 76.58 1021.0
29 06:56 Vrbl 6 16.09 Fair CLR 14.4 11.1 81% 76.53 1020.5
29 05:56 Calm 16.09 Fair CLR 12.8 10 83% 76.48 1019.8
29 04:56 Calm 16.09 Mostly Cloudy BKN080 15 9.4 69% 76.43 1019.1
29 03:56 NW 6 16.09 Mostly Cloudy BKN060 BKN080 16.7 9.4 62% 76.38 1018.5
29 02:56 N 9 16.09 Mostly Cloudy BKN060 BKN085 16.7 10.6 67% 76.35 1018.1
Date Time (edt) Wind (kph) Vis. (km) Weather Sky Cond. Air Dwpt Max. Min. Relative Humidity Wind Chill (°C) Heat Index (°C) altimeter (cm) sea level (mb) 1 hr 3 hr 6 hr
6 hour
Temperature (ºC) Pressure Precipitation (cm)